createdAt,value
2023-10-28T00:02:39.652Z,76.92
2023-10-28T00:07:42.829Z,76.85
2023-10-28T00:12:46.107Z,75.98
2023-10-28T00:17:50.416Z,76.44
2023-10-28T00:22:55.063Z,76.13
2023-10-28T00:27:58.728Z,76.44
2023-10-28T00:33:03.715Z,76.72
2023-10-28T00:38:06.949Z,76.12
2023-10-28T00:43:11.714Z,76.73
2023-10-28T00:48:17.102Z,76.95
2023-10-28T00:53:20.239Z,76.93
2023-10-28T00:58:24.599Z,76.79
2023-10-28T01:03:31.857Z,77.33
2023-10-28T01:08:36.184Z,76.53
2023-10-28T01:13:40.003Z,76.52
2023-10-28T01:18:46.475Z,76.53
2023-10-28T01:23:50.811Z,76.64
2023-10-28T01:28:53.762Z,76.17
2023-10-28T01:33:56.889Z,75.77
2023-10-28T01:39:01.566Z,75.91
2023-10-28T01:44:04.744Z,76.51
2023-10-28T01:49:07.686Z,76.14
2023-10-28T01:54:11.941Z,75.38
2023-10-28T01:59:15.637Z,75.92
2023-10-28T02:04:18.584Z,76.16
2023-10-28T02:09:22.877Z,76.52
2023-10-28T02:14:26.279Z,75.51
2023-10-28T02:19:29.207Z,75.63
2023-10-28T02:24:33.508Z,74.94
2023-10-28T02:29:38.550Z,75.66
2023-10-28T02:34:43.540Z,75.37
2023-10-28T02:39:48.516Z,75.44
2023-10-28T02:44:52.018Z,74.95
2023-10-28T02:49:54.909Z,75.51
2023-10-28T02:54:59.149Z,75.46
2023-10-28T03:00:02.370Z,75.68
2023-10-28T03:05:06.625Z,74.87
2023-10-28T03:10:11.976Z,75.89
2023-10-28T03:15:16.091Z,76.77
2023-10-28T03:20:22.054Z,76.02
2023-10-28T03:25:28.273Z,77.26
2023-10-28T03:30:31.261Z,76.00
2023-10-28T03:35:34.121Z,77.38
2023-10-28T03:40:41.170Z,76.39
2023-10-28T03:45:44.200Z,77.70
2023-10-28T03:50:47.146Z,78.65
2023-10-28T03:55:51.425Z,78.84
2023-10-28T04:00:55.468Z,78.39
2023-10-28T04:05:58.414Z,78.01
2023-10-28T04:11:04.852Z,77.32
2023-10-28T04:16:08.369Z,76.82
2023-10-28T04:21:11.470Z,76.98
2023-10-28T04:26:15.959Z,76.84
2023-10-28T04:31:18.847Z,76.57
2023-10-28T04:36:21.747Z,77.80
2023-10-28T04:41:26.015Z,77.74
2023-10-28T04:46:30.599Z,77.00
2023-10-28T04:51:33.480Z,77.29
2023-10-28T04:56:38.291Z,77.19
2023-10-28T05:01:41.199Z,77.79
2023-10-28T05:06:44.614Z,78.42
2023-10-28T05:11:53.593Z,78.78
2023-10-28T05:16:56.654Z,78.66
2023-10-28T05:22:02.504Z,78.56
2023-10-28T05:27:07.229Z,78.48
2023-10-28T05:32:10.227Z,78.42
2023-10-28T05:37:13.378Z,78.40
2023-10-28T05:42:17.638Z,78.95
2023-10-28T05:47:20.561Z,79.68
2023-10-28T05:52:23.427Z,79.33
2023-10-28T05:57:28.169Z,80.22
2023-10-28T06:02:31.096Z,80.65
2023-10-28T06:07:34.396Z,80.85
2023-10-28T06:12:38.783Z,81.01
2023-10-28T06:17:41.854Z,81.03
2023-10-28T06:22:44.903Z,82.53
2023-10-28T06:27:49.838Z,83.29
2023-10-28T06:32:52.812Z,82.38
2023-10-28T06:37:55.799Z,82.78
2023-10-28T06:43:00.224Z,83.10
2023-10-28T06:48:04.869Z,82.67
2023-10-28T06:53:10.364Z,82.54
2023-10-28T06:58:16.805Z,81.32
2023-10-28T07:03:19.932Z,82.65
2023-10-28T07:08:22.962Z,82.11
2023-10-28T07:13:27.602Z,81.48
2023-10-28T07:18:31.179Z,82.36
2023-10-28T07:23:34.074Z,81.71
2023-10-28T07:28:38.873Z,81.08
2023-10-28T07:33:41.814Z,80.50
2023-10-28T07:38:44.858Z,80.31
2023-10-28T07:43:49.268Z,79.72
2023-10-28T07:48:54.414Z,80.48
2023-10-28T07:53:57.316Z,80.95
2023-10-28T07:59:02.961Z,79.64
2023-10-28T08:04:06.894Z,79.47
2023-10-28T08:09:10.146Z,78.38
2023-10-28T08:14:15.272Z,78.99
2023-10-28T08:19:18.989Z,79.01
2023-10-28T08:24:23.590Z,77.84
2023-10-28T08:29:27.896Z,77.45
2023-10-28T08:34:30.916Z,76.72
2023-10-28T08:39:34.994Z,76.34
2023-10-28T08:44:40.788Z,76.13
2023-10-28T08:49:46.546Z,75.89
2023-10-28T08:54:52.404Z,75.73
2023-10-28T08:59:57.501Z,76.37
2023-10-28T09:05:00.507Z,75.68
2023-10-28T09:10:05.489Z,74.61
2023-10-28T09:15:10.938Z,73.84
2023-10-28T09:20:14.181Z,74.53
2023-10-28T09:25:17.189Z,74.00
2023-10-28T09:30:21.822Z,73.96
2023-10-28T09:35:28.596Z,74.09
2023-10-28T09:40:31.821Z,74.32
2023-10-28T09:45:37.033Z,73.71
2023-10-28T09:50:49.422Z,72.34
2023-10-28T09:55:58.326Z,70.79
2023-10-28T10:01:10.801Z,69.80
2023-10-28T10:06:13.823Z,69.30
2023-10-28T10:11:23.524Z,69.65
2023-10-28T10:16:40.182Z,67.90
2023-10-28T10:21:52.450Z,67.98
2023-10-28T10:26:56.420Z,66.68
2023-10-28T10:32:00.834Z,66.09
2023-10-28T10:37:05.134Z,66.43
2023-10-28T10:42:09.142Z,64.99
2023-10-28T10:47:14.404Z,64.69
2023-10-28T10:52:18.275Z,63.49
2023-10-28T10:57:21.184Z,63.16
2023-10-28T11:02:26.095Z,63.14
2023-10-28T11:07:29.747Z,63.01
2023-10-28T11:12:32.932Z,62.70
2023-10-28T11:17:37.408Z,60.04
2023-10-28T11:22:42.064Z,60.71
2023-10-28T11:27:45.794Z,60.09
2023-10-28T11:32:52.799Z,60.15
2023-10-28T11:37:55.912Z,59.45
2023-10-28T11:42:59.405Z,60.88
2023-10-28T11:48:04.376Z,60.42
2023-10-28T11:53:07.583Z,60.35
2023-10-28T11:58:10.579Z,61.03
2023-10-28T12:03:15.077Z,60.35
2023-10-28T12:08:18.798Z,60.30
2023-10-28T12:13:21.891Z,60.93
2023-10-28T12:18:26.132Z,60.42
2023-10-28T12:23:29.064Z,59.17
2023-10-28T12:28:32.019Z,59.67
2023-10-28T12:33:38.775Z,60.72
2023-10-28T12:38:42.190Z,61.00
2023-10-28T12:43:45.116Z,60.09
2023-10-28T12:48:49.470Z,61.17
2023-10-28T12:53:52.420Z,61.22
2023-10-28T12:58:55.253Z,61.12
2023-10-28T13:03:59.667Z,61.04
2023-10-28T13:09:06.309Z,59.47
2023-10-28T13:14:09.580Z,61.53
2023-10-28T13:19:15.099Z,60.81
2023-10-28T13:24:18.146Z,60.37
2023-10-28T13:29:21.132Z,61.67
2023-10-28T13:34:26.218Z,61.42
2023-10-28T13:39:29.124Z,61.83
2023-10-28T13:44:32.215Z,61.60
2023-10-28T13:49:36.717Z,61.05
2023-10-28T13:54:40.062Z,60.26
2023-10-28T13:59:44.567Z,60.67
2023-10-28T14:04:48.952Z,60.88
2023-10-28T14:09:51.909Z,61.42
2023-10-28T14:14:54.802Z,62.08
2023-10-28T14:19:59.100Z,62.45
2023-10-28T14:25:01.998Z,62.82
2023-10-28T14:30:05.901Z,63.21
2023-10-28T14:35:10.791Z,63.18
2023-10-28T14:40:14.664Z,63.30
2023-10-28T14:45:17.656Z,63.64
2023-10-28T14:50:21.935Z,64.38
2023-10-28T14:55:24.827Z,63.80
2023-10-28T15:00:27.737Z,65.18
2023-10-28T15:05:32.144Z,65.15
2023-10-28T15:10:37.012Z,65.30
2023-10-28T15:15:40.822Z,64.90
2023-10-28T15:20:45.099Z,65.87
2023-10-28T15:25:48.315Z,66.22
2023-10-28T15:30:51.252Z,66.40
2023-10-28T15:35:55.999Z,66.18
2023-10-28T15:41:02.516Z,67.36
2023-10-28T15:46:07.846Z,67.60
2023-10-28T15:51:13.787Z,65.58
2023-10-28T15:56:19.979Z,66.06
2023-10-28T16:01:22.978Z,66.22
2023-10-28T16:06:27.273Z,66.22
2023-10-28T16:11:30.217Z,67.43
2023-10-28T16:16:33.460Z,66.80
2023-10-28T16:21:40.233Z,67.03
2023-10-28T16:26:47.803Z,67.25
2023-10-28T16:31:50.701Z,66.90
2023-10-28T16:36:56.133Z,66.44
2023-10-28T16:41:59.075Z,66.64
2023-10-28T16:47:02.006Z,66.00
2023-10-28T16:52:06.814Z,67.05
2023-10-28T16:57:09.902Z,66.60
2023-10-28T17:02:12.772Z,66.40
2023-10-28T17:07:17.117Z,66.06
2023-10-28T17:12:20.033Z,66.97
2023-10-28T17:17:22.988Z,66.31
2023-10-28T17:22:27.456Z,66.55
2023-10-28T17:27:30.330Z,67.11
2023-10-28T17:32:33.278Z,66.71
2023-10-28T17:37:38.173Z,67.55
2023-10-28T17:42:41.455Z,67.87
2023-10-28T17:47:44.685Z,67.49
2023-10-28T17:52:49.135Z,67.17
2023-10-28T17:57:52.484Z,67.61
2023-10-28T18:02:55.493Z,67.31
2023-10-28T18:07:59.871Z,67.48
2023-10-28T18:13:02.781Z,67.71
2023-10-28T18:18:06.385Z,66.48
2023-10-28T18:23:10.893Z,66.98
2023-10-28T18:28:13.826Z,67.42
2023-10-28T18:33:17.851Z,68.21
2023-10-28T18:38:22.235Z,67.17
2023-10-28T18:43:25.182Z,67.14
2023-10-28T18:48:28.116Z,66.79
2023-10-28T18:53:34.181Z,66.47
2023-10-28T18:58:40.674Z,67.10
2023-10-28T19:03:48.069Z,67.29
2023-10-28T19:08:57.369Z,67.02
2023-10-28T19:14:00.299Z,67.70
2023-10-28T19:19:03.256Z,69.63
2023-10-28T19:24:08.606Z,69.92
2023-10-28T19:29:12.593Z,72.86
2023-10-28T19:34:16.903Z,72.06
2023-10-28T19:39:23.978Z,72.46
2023-10-28T19:44:27.181Z,73.07
2023-10-28T19:49:30.405Z,72.33
2023-10-28T19:54:34.932Z,72.51
2023-10-28T19:59:38.108Z,72.58
2023-10-28T20:04:41.542Z,72.56
2023-10-28T20:09:46.148Z,73.53
2023-10-28T20:14:49.528Z,72.55
2023-10-28T20:19:52.493Z,72.51
2023-10-28T20:24:56.823Z,71.61
2023-10-28T20:29:59.740Z,73.07
2023-10-28T20:35:02.747Z,72.05
2023-10-28T20:40:08.723Z,71.19
2023-10-28T20:45:12.699Z,71.28
2023-10-28T20:50:16.516Z,71.40
2023-10-28T20:55:21.103Z,72.23
2023-10-28T21:00:25.507Z,71.85
2023-10-28T21:05:28.524Z,71.96
2023-10-28T21:10:33.618Z,72.66
2023-10-28T21:15:36.578Z,71.76
2023-10-28T21:20:40.182Z,70.94
2023-10-28T21:25:45.187Z,72.02
2023-10-28T21:30:48.219Z,70.53
2023-10-28T21:35:54.274Z,71.31
2023-10-28T21:41:00.921Z,72.99
2023-10-28T21:46:04.787Z,72.94
2023-10-28T21:51:08.733Z,71.71
2023-10-28T21:56:13.007Z,72.43
2023-10-28T22:01:18.537Z,72.85
2023-10-28T22:06:21.544Z,73.60
2023-10-28T22:11:25.882Z,72.98
2023-10-28T22:16:29.558Z,73.38
2023-10-28T22:21:32.680Z,73.93
2023-10-28T22:26:37.056Z,72.82
2023-10-28T22:31:40.025Z,73.30
2023-10-28T22:36:43.118Z,75.45
2023-10-28T22:41:47.421Z,73.99
2023-10-28T22:46:50.406Z,73.67
2023-10-28T22:51:53.274Z,73.74
2023-10-28T22:56:57.656Z,73.68
2023-10-28T23:02:00.677Z,73.04
2023-10-28T23:07:03.674Z,74.47
2023-10-28T23:12:09.615Z,72.13
2023-10-28T23:17:13.476Z,72.12
2023-10-28T23:22:16.860Z,71.98
2023-10-28T23:27:21.309Z,71.52
2023-10-28T23:32:24.433Z,73.25
2023-10-28T23:37:33.893Z,74.07
2023-10-28T23:42:38.305Z,73.81
2023-10-28T23:47:41.348Z,73.99
2023-10-28T23:52:44.327Z,73.67
2023-10-28T23:57:50.701Z,74.40
